Terminal Aerodrome Forecast
Issued by NWS

Home | Current Version | Previous Version | Text Only | Print | Product List | Glossary On
Versions: 1 2 3 4 5 6 7 8 9 10 11 12 13 14 15 16 17
645
FTUS45 KRIW 302339
TAFCPR
TAF
KCPR 302339Z 3100/3124 28013G21KT P6SM VCSH SCT110
     FM310130 VRB08G15KT P6SM VCSH SCT100 BKN200
     FM310500 23008KT P6SM FEW120 SCT200
     FM311400 23014G20KT P6SM SCT150
     FM312000 31011G18KT P6SM VCTS SCT080CB=

USA.gov is the U.S. government's official web portal to all federal, state and local government web resources and services.